sensor_id;sensor_type;location;lat;lon;timestamp;P1;durP1;ratioP1;P2;durP2;ratioP2
20090;SDS011;10205;49.678;6.560;2023-03-14T00:02:06;6.15;;;2.33;;
20090;SDS011;10205;49.678;6.560;2023-03-14T00:04:33;5.70;;;2.35;;
20090;SDS011;10205;49.678;6.560;2023-03-14T00:07:00;5.85;;;2.00;;
20090;SDS011;10205;49.678;6.560;2023-03-14T00:09:27;4.45;;;1.92;;
20090;SDS011;10205;49.678;6.560;2023-03-14T00:11:55;4.85;;;1.88;;
20090;SDS011;10205;49.678;6.560;2023-03-14T00:14:24;5.32;;;1.83;;
20090;SDS011;10205;49.678;6.560;2023-03-14T00:16:51;6.57;;;2.15;;
20090;SDS011;10205;49.678;6.560;2023-03-14T00:19:18;9.18;;;1.70;;
20090;SDS011;10205;49.678;6.560;2023-03-14T00:21:45;4.75;;;1.90;;
20090;SDS011;10205;49.678;6.560;2023-03-14T00:24:13;5.57;;;1.73;;
20090;SDS011;10205;49.678;6.560;2023-03-14T00:26:40;9.98;;;2.70;;
20090;SDS011;10205;49.678;6.560;2023-03-14T00:29:09;6.88;;;2.35;;
20090;SDS011;10205;49.678;6.560;2023-03-14T00:31:40;6.13;;;2.28;;
20090;SDS011;10205;49.678;6.560;2023-03-14T00:34:07;7.82;;;2.00;;
20090;SDS011;10205;49.678;6.560;2023-03-14T00:36:34;5.03;;;1.73;;
20090;SDS011;10205;49.678;6.560;2023-03-14T00:39:01;5.70;;;2.25;;
20090;SDS011;10205;49.678;6.560;2023-03-14T00:41:28;4.57;;;2.15;;
20090;SDS011;10205;49.678;6.560;2023-03-14T00:43:55;3.08;;;1.90;;
20090;SDS011;10205;49.678;6.560;2023-03-14T00:46:22;4.45;;;1.50;;
20090;SDS011;10205;49.678;6.560;2023-03-14T00:48:51;5.93;;;1.90;;
20090;SDS011;10205;49.678;6.560;2023-03-14T00:51:18;4.40;;;1.88;;
20090;SDS011;10205;49.678;6.560;2023-03-14T00:53:44;5.97;;;2.05;;
20090;SDS011;10205;49.678;6.560;2023-03-14T00:56:12;5.25;;;1.73;;
20090;SDS011;10205;49.678;6.560;2023-03-14T00:58:40;8.10;;;2.05;;
20090;SDS011;10205;49.678;6.560;2023-03-14T01:01:07;6.13;;;2.88;;
20090;SDS011;10205;49.678;6.560;2023-03-14T01:03:37;5.75;;;1.92;;
20090;SDS011;10205;49.678;6.560;2023-03-14T01:06:13;6.28;;;2.22;;
20090;SDS011;10205;49.678;6.560;2023-03-14T01:08:42;5.97;;;2.10;;
20090;SDS011;10205;49.678;6.560;2023-03-14T01:11:10;6.25;;;2.20;;
20090;SDS011;10205;49.678;6.560;2023-03-14T01:13:40;5.03;;;2.17;;
20090;SDS011;10205;49.678;6.560;2023-03-14T01:16:08;6.85;;;2.15;;
20090;SDS011;10205;49.678;6.560;2023-03-14T01:18:37;5.35;;;1.80;;
20090;SDS011;10205;49.678;6.560;2023-03-14T01:21:09;4.13;;;1.80;;
20090;SDS011;10205;49.678;6.560;2023-03-14T01:23:40;6.90;;;1.80;;
20090;SDS011;10205;49.678;6.560;2023-03-14T01:26:09;6.53;;;2.30;;
20090;SDS011;10205;49.678;6.560;2023-03-14T01:28:37;6.15;;;2.08;;
20090;SDS011;10205;49.678;6.560;2023-03-14T01:31:04;8.55;;;2.13;;
20090;SDS011;10205;49.678;6.560;2023-03-14T01:33:34;6.13;;;1.70;;
20090;SDS011;10205;49.678;6.560;2023-03-14T01:36:01;7.38;;;1.90;;
20090;SDS011;10205;49.678;6.560;2023-03-14T01:38:30;6.50;;;2.22;;
20090;SDS011;10205;49.678;6.560;2023-03-14T01:40:58;5.10;;;1.88;;
20090;SDS011;10205;49.678;6.560;2023-03-14T01:43:25;5.20;;;1.63;;
20090;SDS011;10205;49.678;6.560;2023-03-14T01:49:02;4.90;;;1.75;;
20090;SDS011;10205;49.678;6.560;2023-03-14T01:51:42;7.90;;;2.13;;
20090;SDS011;10205;49.678;6.560;2023-03-14T01:54:20;4.45;;;1.75;;
20090;SDS011;10205;49.678;6.560;2023-03-14T01:56:55;6.70;;;2.42;;
20090;SDS011;10205;49.678;6.560;2023-03-14T01:59:29;5.18;;;2.17;;
20090;SDS011;10205;49.678;6.560;2023-03-14T02:01:59;7.53;;;1.75;;
20090;SDS011;10205;49.678;6.560;2023-03-14T02:04:27;4.65;;;1.40;;
20090;SDS011;10205;49.678;6.560;2023-03-14T02:07:01;4.38;;;1.70;;
20090;SDS011;10205;49.678;6.560;2023-03-14T02:09:39;3.55;;;1.80;;
20090;SDS011;10205;49.678;6.560;2023-03-14T02:12:08;4.03;;;1.58;;
20090;SDS011;10205;49.678;6.560;2023-03-14T02:14:40;5.03;;;1.77;;
20090;SDS011;10205;49.678;6.560;2023-03-14T02:17:13;5.65;;;1.90;;
20090;SDS011;10205;49.678;6.560;2023-03-14T02:19:48;5.28;;;1.77;;
20090;SDS011;10205;49.678;6.560;2023-03-14T02:22:32;5.68;;;1.67;;
20090;SDS011;10205;49.678;6.560;2023-03-14T02:25:04;6.82;;;1.80;;
20090;SDS011;10205;49.678;6.560;2023-03-14T02:27:39;7.68;;;1.95;;
20090;SDS011;10205;49.678;6.560;2023-03-14T02:30:07;4.93;;;2.10;;
20090;SDS011;10205;49.678;6.560;2023-03-14T02:32:40;4.68;;;2.15;;
20090;SDS011;10205;49.678;6.560;2023-03-14T02:35:13;6.75;;;1.85;;
20090;SDS011;10205;49.678;6.560;2023-03-14T02:37:46;6.35;;;2.30;;
20090;SDS011;10205;49.678;6.560;2023-03-14T02:40:22;3.20;;;1.50;;
20090;SDS011;10205;49.678;6.560;2023-03-14T02:42:50;4.10;;;1.48;;
20090;SDS011;10205;49.678;6.560;2023-03-14T02:48:14;4.03;;;1.70;;
20090;SDS011;10205;49.678;6.560;2023-03-14T02:50:45;7.75;;;2.10;;
20090;SDS011;10205;49.678;6.560;2023-03-14T02:53:19;4.63;;;2.13;;
20090;SDS011;10205;49.678;6.560;2023-03-14T02:55:51;5.80;;;1.88;;
20090;SDS011;10205;49.678;6.560;2023-03-14T02:58:20;4.43;;;1.60;;
20090;SDS011;10205;49.678;6.560;2023-03-14T03:00:47;6.07;;;2.10;;
20090;SDS011;10205;49.678;6.560;2023-03-14T03:03:15;5.03;;;1.80;;
20090;SDS011;10205;49.678;6.560;2023-03-14T03:05:43;5.85;;;2.00;;
20090;SDS011;10205;49.678;6.560;2023-03-14T03:08:15;4.55;;;2.08;;
20090;SDS011;10205;49.678;6.560;2023-03-14T03:10:42;4.00;;;1.70;;
20090;SDS011;10205;49.678;6.560;2023-03-14T03:13:10;4.75;;;1.77;;
20090;SDS011;10205;49.678;6.560;2023-03-14T03:15:38;3.25;;;1.70;;
20090;SDS011;10205;49.678;6.560;2023-03-14T03:18:05;5.00;;;1.60;;
20090;SDS011;10205;49.678;6.560;2023-03-14T03:20:33;4.18;;;1.25;;
20090;SDS011;10205;49.678;6.560;2023-03-14T03:23:00;3.40;;;1.50;;
20090;SDS011;10205;49.678;6.560;2023-03-14T03:25:27;3.75;;;1.60;;
20090;SDS011;10205;49.678;6.560;2023-03-14T03:27:54;7.47;;;1.67;;
20090;SDS011;10205;49.678;6.560;2023-03-14T03:30:22;8.03;;;1.83;;
20090;SDS011;10205;49.678;6.560;2023-03-14T03:32:51;2.53;;;1.27;;
20090;SDS011;10205;49.678;6.560;2023-03-14T03:35:18;4.22;;;1.30;;
20090;SDS011;10205;49.678;6.560;2023-03-14T03:37:45;2.20;;;1.20;;
20090;SDS011;10205;49.678;6.560;2023-03-14T03:40:14;2.90;;;1.42;;
20090;SDS011;10205;49.678;6.560;2023-03-14T03:42:43;3.65;;;1.70;;
20090;SDS011;10205;49.678;6.560;2023-03-14T03:45:10;2.75;;;1.38;;
20090;SDS011;10205;49.678;6.560;2023-03-14T03:47:37;3.22;;;1.60;;
20090;SDS011;10205;49.678;6.560;2023-03-14T03:50:06;2.95;;;1.50;;
20090;SDS011;10205;49.678;6.560;2023-03-14T03:52:34;3.72;;;1.35;;
20090;SDS011;10205;49.678;6.560;2023-03-14T03:55:01;3.17;;;1.30;;
20090;SDS011;10205;49.678;6.560;2023-03-14T03:57:29;5.50;;;1.90;;
20090;SDS011;10205;49.678;6.560;2023-03-14T03:59:56;4.93;;;2.17;;
20090;SDS011;10205;49.678;6.560;2023-03-14T04:02:23;5.80;;;1.50;;
20090;SDS011;10205;49.678;6.560;2023-03-14T04:04:50;2.67;;;1.30;;
20090;SDS011;10205;49.678;6.560;2023-03-14T04:07:18;2.88;;;1.40;;
20090;SDS011;10205;49.678;6.560;2023-03-14T04:09:45;4.38;;;1.38;;
20090;SDS011;10205;49.678;6.560;2023-03-14T04:12:12;3.75;;;1.30;;
20090;SDS011;10205;49.678;6.560;2023-03-14T04:14:40;3.35;;;1.45;;
20090;SDS011;10205;49.678;6.560;2023-03-14T04:17:07;4.55;;;1.67;;
20090;SDS011;10205;49.678;6.560;2023-03-14T04:19:34;3.45;;;1.38;;
20090;SDS011;10205;49.678;6.560;2023-03-14T04:22:01;2.05;;;1.20;;
20090;SDS011;10205;49.678;6.560;2023-03-14T04:24:29;1.17;;;1.00;;
20090;SDS011;10205;49.678;6.560;2023-03-14T04:26:56;3.50;;;1.20;;
20090;SDS011;10205;49.678;6.560;2023-03-14T04:29:23;3.35;;;1.15;;
20090;SDS011;10205;49.678;6.560;2023-03-14T04:31:51;1.67;;;1.05;;
20090;SDS011;10205;49.678;6.560;2023-03-14T04:34:20;2.20;;;1.10;;
20090;SDS011;10205;49.678;6.560;2023-03-14T04:36:47;3.05;;;1.30;;
20090;SDS011;10205;49.678;6.560;2023-03-14T04:39:14;3.17;;;1.30;;
20090;SDS011;10205;49.678;6.560;2023-03-14T04:41:42;3.73;;;1.20;;
20090;SDS011;10205;49.678;6.560;2023-03-14T04:44:11;3.83;;;1.50;;
20090;SDS011;10205;49.678;6.560;2023-03-14T04:46:38;3.45;;;1.20;;
20090;SDS011;10205;49.678;6.560;2023-03-14T04:49:05;2.70;;;1.27;;
20090;SDS011;10205;49.678;6.560;2023-03-14T04:51:32;1.77;;;1.13;;
20090;SDS011;10205;49.678;6.560;2023-03-14T04:53:59;3.20;;;1.27;;
20090;SDS011;10205;49.678;6.560;2023-03-14T04:56:26;2.40;;;1.33;;
20090;SDS011;10205;49.678;6.560;2023-03-14T04:58:55;3.57;;;2.00;;
20090;SDS011;10205;49.678;6.560;2023-03-14T05:01:21;9.82;;;1.85;;
20090;SDS011;10205;49.678;6.560;2023-03-14T05:03:48;3.63;;;1.47;;
20090;SDS011;10205;49.678;6.560;2023-03-14T05:06:16;5.50;;;1.63;;
20090;SDS011;10205;49.678;6.560;2023-03-14T05:08:43;4.72;;;1.17;;
20090;SDS011;10205;49.678;6.560;2023-03-14T05:11:11;5.57;;;1.33;;
20090;SDS011;10205;49.678;6.560;2023-03-14T05:13:38;3.60;;;1.60;;
20090;SDS011;10205;49.678;6.560;2023-03-14T05:16:08;3.80;;;1.20;;
20090;SDS011;10205;49.678;6.560;2023-03-14T05:18:36;3.40;;;1.45;;
20090;SDS011;10205;49.678;6.560;2023-03-14T05:21:04;3.53;;;1.70;;
20090;SDS011;10205;49.678;6.560;2023-03-14T05:23:32;10.02;;;1.75;;
20090;SDS011;10205;49.678;6.560;2023-03-14T05:25:59;3.35;;;1.10;;
20090;SDS011;10205;49.678;6.560;2023-03-14T05:28:26;4.75;;;1.38;;
20090;SDS011;10205;49.678;6.560;2023-03-14T05:30:53;1.50;;;0.95;;
20090;SDS011;10205;49.678;6.560;2023-03-14T05:33:21;2.15;;;1.38;;
20090;SDS011;10205;49.678;6.560;2023-03-14T05:35:49;3.92;;;1.20;;
20090;SDS011;10205;49.678;6.560;2023-03-14T05:38:15;2.65;;;1.30;;
20090;SDS011;10205;49.678;6.560;2023-03-14T05:40:44;3.35;;;1.30;;
20090;SDS011;10205;49.678;6.560;2023-03-14T05:43:11;4.50;;;1.25;;
20090;SDS011;10205;49.678;6.560;2023-03-14T05:45:40;3.42;;;1.15;;
20090;SDS011;10205;49.678;6.560;2023-03-14T05:48:10;4.05;;;1.38;;
20090;SDS011;10205;49.678;6.560;2023-03-14T05:50:39;2.08;;;1.15;;
20090;SDS011;10205;49.678;6.560;2023-03-14T05:53:06;3.90;;;1.40;;
20090;SDS011;10205;49.678;6.560;2023-03-14T05:55:33;2.22;;;1.27;;
20090;SDS011;10205;49.678;6.560;2023-03-14T05:58:02;3.08;;;1.10;;
20090;SDS011;10205;49.678;6.560;2023-03-14T06:00:29;1.93;;;1.10;;
20090;SDS011;10205;49.678;6.560;2023-03-14T06:02:56;1.83;;;1.20;;
20090;SDS011;10205;49.678;6.560;2023-03-14T06:05:23;2.20;;;1.25;;
20090;SDS011;10205;49.678;6.560;2023-03-14T06:07:52;3.00;;;1.27;;
20090;SDS011;10205;49.678;6.560;2023-03-14T06:10:19;3.13;;;1.00;;
20090;SDS011;10205;49.678;6.560;2023-03-14T06:12:46;1.88;;;1.42;;
20090;SDS011;10205;49.678;6.560;2023-03-14T06:15:15;2.05;;;1.00;;
20090;SDS011;10205;49.678;6.560;2023-03-14T06:17:43;1.52;;;1.10;;
20090;SDS011;10205;49.678;6.560;2023-03-14T06:20:10;4.07;;;1.30;;
20090;SDS011;10205;49.678;6.560;2023-03-14T06:22:38;2.92;;;1.23;;
20090;SDS011;10205;49.678;6.560;2023-03-14T06:25:09;1.85;;;1.00;;
20090;SDS011;10205;49.678;6.560;2023-03-14T06:27:36;2.93;;;1.20;;
20090;SDS011;10205;49.678;6.560;2023-03-14T06:30:04;4.13;;;1.27;;
20090;SDS011;10205;49.678;6.560;2023-03-14T06:32:32;1.13;;;0.90;;
20090;SDS011;10205;49.678;6.560;2023-03-14T06:34:59;3.15;;;1.13;;
20090;SDS011;10205;49.678;6.560;2023-03-14T06:37:29;2.28;;;1.10;;
20090;SDS011;10205;49.678;6.560;2023-03-14T06:39:57;1.75;;;1.10;;
20090;SDS011;10205;49.678;6.560;2023-03-14T06:42:25;1.15;;;1.00;;
20090;SDS011;10205;49.678;6.560;2023-03-14T06:44:52;3.92;;;1.27;;
20090;SDS011;10205;49.678;6.560;2023-03-14T06:47:28;2.20;;;0.95;;
20090;SDS011;10205;49.678;6.560;2023-03-14T06:49:55;1.70;;;1.17;;
20090;SDS011;10205;49.678;6.560;2023-03-14T06:52:22;1.48;;;1.10;;
20090;SDS011;10205;49.678;6.560;2023-03-14T06:54:49;1.73;;;1.40;;
20090;SDS011;10205;49.678;6.560;2023-03-14T06:57:16;1.20;;;0.90;;
20090;SDS011;10205;49.678;6.560;2023-03-14T06:59:45;1.23;;;1.00;;
20090;SDS011;10205;49.678;6.560;2023-03-14T07:02:12;2.03;;;1.05;;
20090;SDS011;10205;49.678;6.560;2023-03-14T07:04:42;1.80;;;1.00;;
20090;SDS011;10205;49.678;6.560;2023-03-14T07:07:09;2.63;;;1.10;;
20090;SDS011;10205;49.678;6.560;2023-03-14T07:09:37;3.33;;;1.63;;
20090;SDS011;10205;49.678;6.560;2023-03-14T07:12:04;2.22;;;1.05;;
20090;SDS011;10205;49.678;6.560;2023-03-14T07:14:34;2.08;;;0.82;;
20090;SDS011;10205;49.678;6.560;2023-03-14T07:17:02;3.00;;;1.30;;
20090;SDS011;10205;49.678;6.560;2023-03-14T07:19:29;3.03;;;0.85;;
20090;SDS011;10205;49.678;6.560;2023-03-14T07:21:56;3.28;;;0.95;;
20090;SDS011;10205;49.678;6.560;2023-03-14T07:24:23;1.52;;;1.02;;
20090;SDS011;10205;49.678;6.560;2023-03-14T07:26:50;1.52;;;0.80;;
20090;SDS011;10205;49.678;6.560;2023-03-14T07:29:17;1.10;;;1.00;;
20090;SDS011;10205;49.678;6.560;2023-03-14T07:31:44;0.82;;;0.80;;
20090;SDS011;10205;49.678;6.560;2023-03-14T07:34:13;1.50;;;0.93;;
20090;SDS011;10205;49.678;6.560;2023-03-14T07:36:40;1.27;;;0.80;;
20090;SDS011;10205;49.678;6.560;2023-03-14T07:39:06;2.20;;;1.10;;
20090;SDS011;10205;49.678;6.560;2023-03-14T07:41:34;3.15;;;1.17;;
20090;SDS011;10205;49.678;6.560;2023-03-14T07:44:01;1.63;;;1.05;;
20090;SDS011;10205;49.678;6.560;2023-03-14T07:46:28;1.20;;;0.70;;
20090;SDS011;10205;49.678;6.560;2023-03-14T07:48:55;2.28;;;0.80;;
20090;SDS011;10205;49.678;6.560;2023-03-14T07:51:23;2.22;;;0.90;;
20090;SDS011;10205;49.678;6.560;2023-03-14T07:53:50;1.25;;;1.08;;
20090;SDS011;10205;49.678;6.560;2023-03-14T07:56:17;1.88;;;0.85;;
20090;SDS011;10205;49.678;6.560;2023-03-14T07:58:44;1.38;;;0.90;;
20090;SDS011;10205;49.678;6.560;2023-03-14T08:01:11;0.95;;;0.90;;
20090;SDS011;10205;49.678;6.560;2023-03-14T08:03:38;0.80;;;0.80;;
20090;SDS011;10205;49.678;6.560;2023-03-14T08:06:06;1.45;;;0.70;;
20090;SDS011;10205;49.678;6.560;2023-03-14T08:08:34;2.60;;;1.15;;
20090;SDS011;10205;49.678;6.560;2023-03-14T08:11:02;1.15;;;0.80;;
20090;SDS011;10205;49.678;6.560;2023-03-14T08:13:30;1.30;;;0.90;;
20090;SDS011;10205;49.678;6.560;2023-03-14T08:15:57;1.08;;;0.90;;
20090;SDS011;10205;49.678;6.560;2023-03-14T08:18:24;1.25;;;0.80;;
20090;SDS011;10205;49.678;6.560;2023-03-14T08:20:51;0.85;;;0.85;;
20090;SDS011;10205;49.678;6.560;2023-03-14T08:23:18;1.88;;;0.90;;
20090;SDS011;10205;49.678;6.560;2023-03-14T08:25:47;2.45;;;0.63;;
20090;SDS011;10205;49.678;6.560;2023-03-14T08:28:15;0.77;;;0.77;;
20090;SDS011;10205;49.678;6.560;2023-03-14T08:30:43;0.80;;;0.70;;
20090;SDS011;10205;49.678;6.560;2023-03-14T08:33:10;1.77;;;1.15;;
20090;SDS011;10205;49.678;6.560;2023-03-14T08:35:37;1.48;;;0.80;;
20090;SDS011;10205;49.678;6.560;2023-03-14T08:38:04;0.93;;;0.80;;
20090;SDS011;10205;49.678;6.560;2023-03-14T08:40:31;1.60;;;0.70;;
20090;SDS011;10205;49.678;6.560;2023-03-14T08:43:00;1.70;;;0.80;;
20090;SDS011;10205;49.678;6.560;2023-03-14T08:45:27;1.20;;;1.10;;
20090;SDS011;10205;49.678;6.560;2023-03-14T08:47:54;0.63;;;0.63;;
20090;SDS011;10205;49.678;6.560;2023-03-14T08:50:21;0.80;;;0.77;;
20090;SDS011;10205;49.678;6.560;2023-03-14T08:52:49;0.93;;;0.70;;
20090;SDS011;10205;49.678;6.560;2023-03-14T08:55:16;1.37;;;0.70;;
20090;SDS011;10205;49.678;6.560;2023-03-14T08:57:43;0.95;;;0.70;;
20090;SDS011;10205;49.678;6.560;2023-03-14T09:00:13;0.60;;;0.60;;
20090;SDS011;10205;49.678;6.560;2023-03-14T09:02:42;0.70;;;0.60;;
20090;SDS011;10205;49.678;6.560;2023-03-14T09:05:09;1.83;;;0.70;;
20090;SDS011;10205;49.678;6.560;2023-03-14T09:07:36;0.70;;;0.70;;
20090;SDS011;10205;49.678;6.560;2023-03-14T09:10:05;0.70;;;0.70;;
20090;SDS011;10205;49.678;6.560;2023-03-14T09:12:34;1.60;;;0.70;;
20090;SDS011;10205;49.678;6.560;2023-03-14T09:15:01;0.80;;;0.80;;
20090;SDS011;10205;49.678;6.560;2023-03-14T09:17:30;0.80;;;0.80;;
20090;SDS011;10205;49.678;6.560;2023-03-14T09:19:58;0.80;;;0.80;;
20090;SDS011;10205;49.678;6.560;2023-03-14T09:22:25;0.77;;;0.77;;
20090;SDS011;10205;49.678;6.560;2023-03-14T09:24:52;0.60;;;0.60;;
20090;SDS011;10205;49.678;6.560;2023-03-14T09:27:19;0.70;;;0.70;;
20090;SDS011;10205;49.678;6.560;2023-03-14T09:29:46;0.65;;;0.65;;
20090;SDS011;10205;49.678;6.560;2023-03-14T09:32:13;1.07;;;0.70;;
20090;SDS011;10205;49.678;6.560;2023-03-14T09:34:42;0.63;;;0.63;;
20090;SDS011;10205;49.678;6.560;2023-03-14T09:37:09;0.73;;;0.70;;
20090;SDS011;10205;49.678;6.560;2023-03-14T09:39:36;0.70;;;0.70;;
20090;SDS011;10205;49.678;6.560;2023-03-14T09:42:04;1.08;;;0.85;;
20090;SDS011;10205;49.678;6.560;2023-03-14T09:44:39;0.63;;;0.63;;
20090;SDS011;10205;49.678;6.560;2023-03-14T09:47:19;0.70;;;0.70;;
20090;SDS011;10205;49.678;6.560;2023-03-14T09:49:49;0.70;;;0.70;;
20090;SDS011;10205;49.678;6.560;2023-03-14T09:52:16;0.75;;;0.75;;
20090;SDS011;10205;49.678;6.560;2023-03-14T09:54:50;0.70;;;0.70;;
20090;SDS011;10205;49.678;6.560;2023-03-14T09:57:21;0.82;;;0.60;;
20090;SDS011;10205;49.678;6.560;2023-03-14T09:59:51;0.63;;;0.63;;
20090;SDS011;10205;49.678;6.560;2023-03-14T10:02:25;0.60;;;0.60;;
20090;SDS011;10205;49.678;6.560;2023-03-14T10:05:04;0.60;;;0.60;;
20090;SDS011;10205;49.678;6.560;2023-03-14T10:07:40;0.70;;;0.70;;
20090;SDS011;10205;49.678;6.560;2023-03-14T10:10:09;0.73;;;0.60;;
20090;SDS011;10205;49.678;6.560;2023-03-14T10:12:44;0.98;;;0.70;;
20090;SDS011;10205;49.678;6.560;2023-03-14T10:15:14;0.60;;;0.60;;
20090;SDS011;10205;49.678;6.560;2023-03-14T10:17:50;0.60;;;0.60;;
20090;SDS011;10205;49.678;6.560;2023-03-14T10:20:30;0.60;;;0.60;;
20090;SDS011;10205;49.678;6.560;2023-03-14T10:23:01;0.70;;;0.70;;
20090;SDS011;10205;49.678;6.560;2023-03-14T10:25:31;0.80;;;0.80;;
20090;SDS011;10205;49.678;6.560;2023-03-14T10:28:03;0.80;;;0.80;;
20090;SDS011;10205;49.678;6.560;2023-03-14T10:30:38;1.70;;;0.82;;
20090;SDS011;10205;49.678;6.560;2023-03-14T10:33:11;0.70;;;0.70;;
20090;SDS011;10205;49.678;6.560;2023-03-14T10:35:51;1.05;;;0.70;;
20090;SDS011;10205;49.678;6.560;2023-03-14T10:38:22;0.70;;;0.70;;
20090;SDS011;10205;49.678;6.560;2023-03-14T10:40:53;0.85;;;0.85;;
20090;SDS011;10205;49.678;6.560;2023-03-14T10:43:23;0.80;;;0.80;;
20090;SDS011;10205;49.678;6.560;2023-03-14T10:45:54;0.88;;;0.88;;
20090;SDS011;10205;49.678;6.560;2023-03-14T10:48:29;0.70;;;0.70;;
20090;SDS011;10205;49.678;6.560;2023-03-14T10:51:04;1.20;;;1.02;;
20090;SDS011;10205;49.678;6.560;2023-03-14T10:53:42;1.00;;;1.00;;
20090;SDS011;10205;49.678;6.560;2023-03-14T10:56:16;1.30;;;0.90;;
20090;SDS011;10205;49.678;6.560;2023-03-14T10:58:45;1.00;;;0.90;;
20090;SDS011;10205;49.678;6.560;2023-03-14T11:01:17;1.00;;;1.00;;
20090;SDS011;10205;49.678;6.560;2023-03-14T11:03:58;0.93;;;0.90;;
20090;SDS011;10205;49.678;6.560;2023-03-14T11:06:38;1.17;;;1.05;;
20090;SDS011;10205;49.678;6.560;2023-03-14T11:09:15;1.25;;;1.13;;
20090;SDS011;10205;49.678;6.560;2023-03-14T11:11:52;1.30;;;1.20;;
20090;SDS011;10205;49.678;6.560;2023-03-14T11:14:26;2.75;;;1.40;;
20090;SDS011;10205;49.678;6.560;2023-03-14T11:17:00;1.00;;;1.00;;
20090;SDS011;10205;49.678;6.560;2023-03-14T11:19:42;1.40;;;1.00;;
20090;SDS011;10205;49.678;6.560;2023-03-14T11:22:26;2.40;;;1.40;;
20090;SDS011;10205;49.678;6.560;2023-03-14T11:25:13;1.20;;;1.10;;
20090;SDS011;10205;49.678;6.560;2023-03-14T11:27:48;1.45;;;1.13;;
20090;SDS011;10205;49.678;6.560;2023-03-14T11:30:27;1.90;;;1.35;;
20090;SDS011;10205;49.678;6.560;2023-03-14T11:33:04;2.30;;;1.33;;
20090;SDS011;10205;49.678;6.560;2023-03-14T11:35:41;2.95;;;1.20;;
20090;SDS011;10205;49.678;6.560;2023-03-14T11:38:19;1.88;;;1.38;;
20090;SDS011;10205;49.678;6.560;2023-03-14T11:40:57;1.30;;;1.20;;
20090;SDS011;10205;49.678;6.560;2023-03-14T11:43:26;1.60;;;1.20;;
20090;SDS011;10205;49.678;6.560;2023-03-14T11:46:02;1.25;;;1.13;;
20090;SDS011;10205;49.678;6.560;2023-03-14T11:48:40;2.80;;;1.20;;
20090;SDS011;10205;49.678;6.560;2023-03-14T11:51:16;1.20;;;1.10;;
20090;SDS011;10205;49.678;6.560;2023-03-14T11:53:53;2.07;;;1.00;;
20090;SDS011;10205;49.678;6.560;2023-03-14T11:56:33;1.83;;;1.50;;
20090;SDS011;10205;49.678;6.560;2023-03-14T11:59:07;2.23;;;1.20;;
20090;SDS011;10205;49.678;6.560;2023-03-14T12:01:49;1.50;;;1.00;;
20090;SDS011;10205;49.678;6.560;2023-03-14T12:04:25;2.77;;;1.37;;
20090;SDS011;10205;49.678;6.560;2023-03-14T12:07:11;2.75;;;1.65;;
20090;SDS011;10205;49.678;6.560;2023-03-14T12:09:48;3.17;;;1.38;;
20090;SDS011;10205;49.678;6.560;2023-03-14T12:12:18;1.10;;;1.00;;
20090;SDS011;10205;49.678;6.560;2023-03-14T12:14:53;2.13;;;1.00;;
20090;SDS011;10205;49.678;6.560;2023-03-14T12:17:24;1.17;;;1.07;;
20090;SDS011;10205;49.678;6.560;2023-03-14T12:20:01;2.05;;;1.27;;
20090;SDS011;10205;49.678;6.560;2023-03-14T12:22:41;1.15;;;0.90;;
20090;SDS011;10205;49.678;6.560;2023-03-14T12:25:15;2.70;;;0.97;;
20090;SDS011;10205;49.678;6.560;2023-03-14T12:27:47;1.53;;;1.00;;
20090;SDS011;10205;49.678;6.560;2023-03-14T12:30:30;3.97;;;1.20;;
20090;SDS011;10205;49.678;6.560;2023-03-14T12:36:00;1.60;;;1.00;;
20090;SDS011;10205;49.678;6.560;2023-03-14T12:38:49;1.10;;;1.00;;
20090;SDS011;10205;49.678;6.560;2023-03-14T12:41:29;1.65;;;0.90;;
20090;SDS011;10205;49.678;6.560;2023-03-14T12:50:21;1.00;;;0.90;;
20090;SDS011;10205;49.678;6.560;2023-03-14T12:53:01;2.07;;;0.90;;
20090;SDS011;10205;49.678;6.560;2023-03-14T12:56:09;1.30;;;1.13;;
20090;SDS011;10205;49.678;6.560;2023-03-14T12:58:53;1.17;;;1.05;;
20090;SDS011;10205;49.678;6.560;2023-03-14T13:01:48;1.97;;;1.13;;
20090;SDS011;10205;49.678;6.560;2023-03-14T13:04:26;2.60;;;0.90;;
20090;SDS011;10205;49.678;6.560;2023-03-14T13:07:00;0.80;;;0.80;;
20090;SDS011;10205;49.678;6.560;2023-03-14T13:09:35;1.58;;;0.80;;
20090;SDS011;10205;49.678;6.560;2023-03-14T13:12:22;1.02;;;0.90;;
20090;SDS011;10205;49.678;6.560;2023-03-14T13:14:57;0.80;;;0.80;;
20090;SDS011;10205;49.678;6.560;2023-03-14T13:17:31;1.30;;;0.90;;
20090;SDS011;10205;49.678;6.560;2023-03-14T13:20:00;2.83;;;1.03;;
20090;SDS011;10205;49.678;6.560;2023-03-14T13:22:38;1.45;;;1.05;;
20090;SDS011;10205;49.678;6.560;2023-03-14T13:25:12;1.67;;;1.00;;
20090;SDS011;10205;49.678;6.560;2023-03-14T13:27:41;2.25;;;0.90;;
20090;SDS011;10205;49.678;6.560;2023-03-14T13:30:15;1.67;;;1.00;;
20090;SDS011;10205;49.678;6.560;2023-03-14T13:32:50;2.30;;;0.90;;
20090;SDS011;10205;49.678;6.560;2023-03-14T13:35:21;2.35;;;0.90;;
20090;SDS011;10205;49.678;6.560;2023-03-14T13:37:57;1.02;;;0.90;;
20090;SDS011;10205;49.678;6.560;2023-03-14T13:40:30;3.38;;;1.00;;
20090;SDS011;10205;49.678;6.560;2023-03-14T13:43:01;1.27;;;1.17;;
20090;SDS011;10205;49.678;6.560;2023-03-14T13:45:42;2.28;;;1.30;;
20090;SDS011;10205;49.678;6.560;2023-03-14T13:48:14;1.90;;;1.13;;
20090;SDS011;10205;49.678;6.560;2023-03-14T13:50:45;1.80;;;1.17;;
20090;SDS011;10205;49.678;6.560;2023-03-14T13:53:17;2.10;;;1.03;;
20090;SDS011;10205;49.678;6.560;2023-03-14T13:55:45;2.03;;;1.10;;
20090;SDS011;10205;49.678;6.560;2023-03-14T13:58:22;1.87;;;1.20;;
20090;SDS011;10205;49.678;6.560;2023-03-14T14:00:55;2.05;;;1.15;;
20090;SDS011;10205;49.678;6.560;2023-03-14T14:03:27;2.10;;;1.00;;
20090;SDS011;10205;49.678;6.560;2023-03-14T14:05:57;1.80;;;1.25;;
20090;SDS011;10205;49.678;6.560;2023-03-14T14:08:24;4.20;;;1.55;;
20090;SDS011;10205;49.678;6.560;2023-03-14T14:10:53;2.53;;;1.33;;
20090;SDS011;10205;49.678;6.560;2023-03-14T14:13:26;2.65;;;1.13;;
20090;SDS011;10205;49.678;6.560;2023-03-14T14:16:02;3.75;;;1.33;;
20090;SDS011;10205;49.678;6.560;2023-03-14T14:18:31;2.40;;;1.30;;
20090;SDS011;10205;49.678;6.560;2023-03-14T14:21:00;3.00;;;1.13;;
20090;SDS011;10205;49.678;6.560;2023-03-14T14:23:28;2.63;;;1.00;;
20090;SDS011;10205;49.678;6.560;2023-03-14T14:25:57;1.95;;;1.40;;
20090;SDS011;10205;49.678;6.560;2023-03-14T14:28:26;1.75;;;1.20;;
20090;SDS011;10205;49.678;6.560;2023-03-14T14:31:16;3.50;;;1.40;;
20090;SDS011;10205;49.678;6.560;2023-03-14T14:33:53;3.67;;;1.50;;
20090;SDS011;10205;49.678;6.560;2023-03-14T14:36:23;4.67;;;1.63;;
20090;SDS011;10205;49.678;6.560;2023-03-14T14:38:54;2.70;;;1.20;;
20090;SDS011;10205;49.678;6.560;2023-03-14T14:41:30;3.30;;;1.35;;
20090;SDS011;10205;49.678;6.560;2023-03-14T14:44:03;2.78;;;1.42;;
20090;SDS011;10205;49.678;6.560;2023-03-14T14:46:32;5.63;;;1.52;;
20090;SDS011;10205;49.678;6.560;2023-03-14T14:49:03;2.08;;;1.20;;
20090;SDS011;10205;49.678;6.560;2023-03-14T14:51:38;4.90;;;1.20;;
20090;SDS011;10205;49.678;6.560;2023-03-14T14:54:15;3.78;;;1.67;;
20090;SDS011;10205;49.678;6.560;2023-03-14T14:56:48;3.67;;;1.20;;
20090;SDS011;10205;49.678;6.560;2023-03-14T14:59:22;3.08;;;1.40;;
20090;SDS011;10205;49.678;6.560;2023-03-14T15:01:58;3.67;;;1.30;;
20090;SDS011;10205;49.678;6.560;2023-03-14T15:04:29;2.60;;;1.38;;
20090;SDS011;10205;49.678;6.560;2023-03-14T15:06:57;2.85;;;1.27;;
20090;SDS011;10205;49.678;6.560;2023-03-14T15:09:24;4.07;;;1.40;;
20090;SDS011;10205;49.678;6.560;2023-03-14T15:11:51;2.60;;;1.42;;
20090;SDS011;10205;49.678;6.560;2023-03-14T15:14:18;4.25;;;1.30;;
20090;SDS011;10205;49.678;6.560;2023-03-14T15:16:45;1.30;;;1.10;;
20090;SDS011;10205;49.678;6.560;2023-03-14T15:19:16;3.00;;;1.20;;
20090;SDS011;10205;49.678;6.560;2023-03-14T15:21:47;2.15;;;1.10;;
20090;SDS011;10205;49.678;6.560;2023-03-14T15:24:14;1.77;;;0.98;;